createdAt,value
2018-09-04T00:00:15.492Z,20.50
2018-09-04T00:02:43.370Z,19.67
2018-09-04T00:05:10.699Z,19.00
2018-09-04T00:07:38.024Z,19.33
2018-09-04T00:10:06.446Z,19.17
2018-09-04T00:12:33.808Z,21.23
2018-09-04T00:15:01.126Z,20.80
2018-09-04T00:17:28.446Z,21.80
2018-09-04T00:19:56.034Z,19.63
2018-09-04T00:22:23.358Z,19.77
2018-09-04T00:24:50.683Z,20.37
2018-09-04T00:27:18.002Z,20.67
2018-09-04T00:29:45.560Z,20.10
2018-09-04T00:32:13.161Z,18.70
2018-09-04T00:34:40.554Z,20.93
2018-09-04T00:37:08.381Z,21.00
2018-09-04T00:39:35.950Z,21.43
2018-09-04T00:42:03.303Z,19.73
2018-09-04T00:44:30.608Z,19.63
2018-09-04T00:46:58.926Z,19.57
2018-09-04T00:49:26.499Z,20.13
2018-09-04T00:51:54.240Z,20.00
2018-09-04T00:54:21.771Z,20.80
2018-09-04T00:56:49.135Z,19.07
2018-09-04T00:59:16.429Z,19.97
2018-09-04T01:01:44.094Z,20.40
2018-09-04T01:04:12.033Z,17.87
2018-09-04T01:06:39.577Z,19.10
2018-09-04T01:09:07.405Z,20.00
2018-09-04T01:11:34.979Z,18.47
2018-09-04T01:14:02.839Z,18.83
2018-09-04T01:16:30.363Z,19.07
2018-09-04T01:18:58.329Z,20.77
2018-09-04T01:21:25.654Z,19.80
2018-09-04T01:23:53.264Z,20.37
2018-09-04T01:26:20.858Z,19.00
2018-09-04T01:28:48.515Z,21.77
2018-09-04T01:31:16.095Z,19.47
2018-09-04T01:33:43.751Z,20.33
2018-09-04T01:36:11.468Z,20.43
2018-09-04T01:38:39.059Z,21.40
2018-09-04T01:41:06.415Z,21.37
2018-09-04T01:43:33.834Z,19.90
2018-09-04T01:46:01.154Z,22.20
2018-09-04T01:48:28.697Z,20.60
2018-09-04T01:50:56.307Z,20.60
2018-09-04T01:53:23.627Z,18.80
2018-09-04T01:55:51.000Z,19.13
2018-09-04T01:58:19.034Z,19.63
2018-09-04T02:00:47.151Z,20.53
2018-09-04T02:03:14.749Z,21.60
2018-09-04T02:05:42.068Z,19.70
2018-09-04T02:08:09.628Z,20.17
2018-09-04T02:10:37.028Z,20.47
2018-09-04T02:13:04.812Z,20.77
2018-09-04T02:15:32.623Z,20.67
2018-09-04T02:18:03.023Z,20.00
2018-09-04T02:20:30.729Z,20.03
2018-09-04T02:22:58.127Z,20.43
2018-09-04T02:25:25.510Z,19.33
2018-09-04T02:27:52.815Z,19.87
2018-09-04T02:30:20.172Z,19.23
2018-09-04T02:32:47.503Z,18.67
2018-09-04T02:35:14.903Z,21.73
2018-09-04T02:37:42.215Z,19.17
2018-09-04T02:40:09.880Z,19.93
2018-09-04T02:42:37.441Z,22.80
2018-09-04T02:45:05.041Z,19.87
2018-09-04T02:47:32.453Z,19.07
2018-09-04T02:49:59.886Z,20.73
2018-09-04T02:52:27.555Z,19.87
2018-09-04T02:54:55.422Z,18.43
2018-09-04T02:57:22.727Z,19.00
2018-09-04T02:59:50.300Z,20.30
2018-09-04T03:02:17.898Z,20.83
2018-09-04T03:04:45.301Z,17.83
2018-09-04T03:07:12.638Z,19.80
2018-09-04T03:09:39.944Z,18.23
2018-09-04T03:12:07.375Z,18.70
2018-09-04T03:14:35.539Z,20.20
2018-09-04T03:17:03.074Z,19.07
2018-09-04T03:19:30.674Z,18.80
2018-09-04T03:21:58.040Z,18.33
2018-09-04T03:24:25.657Z,19.10
2018-09-04T03:26:52.962Z,19.93
2018-09-04T03:29:20.678Z,21.23
2018-09-04T03:31:47.985Z,19.40
2018-09-04T03:34:15.320Z,19.60
2018-09-04T03:36:43.087Z,20.03
2018-09-04T03:39:11.388Z,19.00
2018-09-04T03:41:38.983Z,19.63
2018-09-04T03:44:06.334Z,18.87
2018-09-04T03:46:33.891Z,20.47
2018-09-04T03:49:01.565Z,17.85
2018-09-04T03:51:28.917Z,19.12
2018-09-04T03:53:56.231Z,21.07
2018-09-04T03:56:23.809Z,18.23
2018-09-04T03:58:51.159Z,17.67
2018-09-04T04:01:18.536Z,18.48
2018-09-04T04:03:45.881Z,20.80
2018-09-04T04:06:13.234Z,20.80
2018-09-04T04:08:40.844Z,19.50
2018-09-04T04:11:08.218Z,18.90
2018-09-04T04:13:35.536Z,20.40
2018-09-04T04:16:03.101Z,22.15
2018-09-04T04:18:30.716Z,18.60
2018-09-04T04:21:01.454Z,17.70
2018-09-04T04:23:29.807Z,18.00
2018-09-04T04:25:59.295Z,16.30
2018-09-04T04:28:26.915Z,18.73
2018-09-04T04:30:54.276Z,17.15
2018-09-04T04:33:25.925Z,17.07
2018-09-04T04:35:53.288Z,15.55
2018-09-04T04:38:21.041Z,17.27
2018-09-04T04:40:48.400Z,18.50
2018-09-04T04:43:16.041Z,16.40
2018-09-04T04:45:43.387Z,17.40
2018-09-04T04:48:10.809Z,16.27
2018-09-04T04:50:38.172Z,18.32
2018-09-04T04:53:05.924Z,15.70
2018-09-04T04:55:33.483Z,15.40
2018-09-04T04:58:01.699Z,16.00
2018-09-04T05:00:29.344Z,17.05
2018-09-04T05:02:56.867Z,15.73
2018-09-04T05:05:24.432Z,14.20
2018-09-04T05:07:52.014Z,19.17
2018-09-04T05:10:19.634Z,15.40
2018-09-04T05:12:47.502Z,14.70
2018-09-04T05:15:14.890Z,15.50
2018-09-04T05:17:42.520Z,16.10
2018-09-04T05:20:11.961Z,18.10
2018-09-04T05:22:39.341Z,19.47
2018-09-04T05:25:06.747Z,17.40
2018-09-04T05:27:34.101Z,17.00
2018-09-04T05:30:01.692Z,15.70
2018-09-04T05:32:34.467Z,17.53
2018-09-04T05:35:01.828Z,16.47
2018-09-04T05:37:29.622Z,18.90
2018-09-04T05:39:57.237Z,16.97
2018-09-04T05:42:29.289Z,19.43
2018-09-04T05:44:57.258Z,16.47
2018-09-04T05:47:27.847Z,16.80
2018-09-04T05:49:55.509Z,17.30
2018-09-04T05:52:22.882Z,16.70
2018-09-04T05:54:50.662Z,15.60
2018-09-04T05:57:18.566Z,16.77
2018-09-04T05:59:46.191Z,18.43
2018-09-04T06:02:13.542Z,16.67
2018-09-04T06:04:41.174Z,17.63
2018-09-04T06:07:08.528Z,17.13
2018-09-04T06:09:36.084Z,16.33
2018-09-04T06:12:03.736Z,16.90
2018-09-04T06:14:31.126Z,15.87
2018-09-04T06:16:58.686Z,16.73
2018-09-04T06:19:26.047Z,14.23
2018-09-04T06:21:53.929Z,17.17
2018-09-04T06:24:21.873Z,16.47
2018-09-04T06:26:49.219Z,16.83
2018-09-04T06:29:16.606Z,17.27
2018-09-04T06:31:43.955Z,15.80
2018-09-04T06:34:11.728Z,16.17
2018-09-04T06:36:39.233Z,17.40
2018-09-04T06:39:07.635Z,16.47
2018-09-04T06:41:34.989Z,17.23
2018-09-04T06:44:03.366Z,16.83
2018-09-04T06:46:31.002Z,14.53
2018-09-04T06:48:58.582Z,16.77
2018-09-04T06:51:26.823Z,15.90
2018-09-04T06:53:54.175Z,16.20
2018-09-04T06:56:21.555Z,16.10
2018-09-04T06:58:49.027Z,16.93
2018-09-04T07:01:16.469Z,15.43
2018-09-04T07:03:43.866Z,15.47
2018-09-04T07:06:11.338Z,14.60
2018-09-04T07:08:38.554Z,14.37
2018-09-04T07:11:06.715Z,15.57
2018-09-04T07:13:34.087Z,15.40
2018-09-04T07:16:01.468Z,15.13
2018-09-04T07:18:29.304Z,13.97
2018-09-04T07:20:56.682Z,15.33
2018-09-04T07:23:24.109Z,15.30
2018-09-04T07:25:51.496Z,14.03
2018-09-04T07:28:18.861Z,16.33
2018-09-04T07:30:46.272Z,16.20
2018-09-04T07:33:13.620Z,14.27
2018-09-04T07:35:40.979Z,15.73
2018-09-04T07:38:08.705Z,16.10
2018-09-04T07:40:36.066Z,14.60
2018-09-04T07:43:03.475Z,14.90
2018-09-04T07:45:30.815Z,15.90
2018-09-04T07:47:58.167Z,14.03
2018-09-04T07:50:25.895Z,13.80
2018-09-04T07:52:53.763Z,14.00
2018-09-04T07:55:21.408Z,14.63
2018-09-04T07:57:48.762Z,13.47
2018-09-04T08:00:16.104Z,13.67
2018-09-04T08:02:43.531Z,14.80
2018-09-04T08:05:12.002Z,14.83
2018-09-04T08:07:39.379Z,15.40
2018-09-04T08:10:07.027Z,13.50
2018-09-04T08:12:34.925Z,16.20
2018-09-04T08:15:03.164Z,16.17
2018-09-04T08:17:30.500Z,14.20
2018-09-04T08:19:58.119Z,14.83
2018-09-04T08:22:28.080Z,15.47
2018-09-04T08:24:55.463Z,13.43
2018-09-04T08:27:22.837Z,14.90
2018-09-04T08:29:50.869Z,15.83
2018-09-04T08:34:50.304Z,16.23
2018-09-04T08:37:17.658Z,15.83
2018-09-04T08:39:44.995Z,16.40
2018-09-04T08:42:12.871Z,14.33
2018-09-04T08:44:40.231Z,15.87
2018-09-04T08:47:07.981Z,16.50
2018-09-04T08:49:35.338Z,15.07
2018-09-04T08:52:02.709Z,15.43
2018-09-04T08:54:30.675Z,17.20
2018-09-04T08:56:59.823Z,19.80
2018-09-04T08:59:28.144Z,19.97
2018-09-04T09:01:55.922Z,17.17
2018-09-04T09:04:23.575Z,16.77
2018-09-04T09:06:51.206Z,18.73
2018-09-04T09:09:18.594Z,17.87
2018-09-04T09:11:45.930Z,18.63
2018-09-04T09:14:13.316Z,17.50
2018-09-04T09:16:41.042Z,18.67
2018-09-04T09:19:08.713Z,19.67
2018-09-04T09:21:36.091Z,19.73
2018-09-04T09:24:03.712Z,20.13
2018-09-04T09:26:31.184Z,20.50
2018-09-04T09:28:58.741Z,21.57
2018-09-04T09:31:26.221Z,20.13
2018-09-04T09:33:53.589Z,20.17
2018-09-04T09:36:21.193Z,21.27
2018-09-04T09:38:48.782Z,19.60
2018-09-04T09:41:16.707Z,20.90
2018-09-04T09:43:44.052Z,19.77
2018-09-04T09:46:11.460Z,22.43
2018-09-04T09:48:41.938Z,23.73
2018-09-04T09:51:10.900Z,22.90
2018-09-04T09:53:38.507Z,22.00
2018-09-04T09:56:05.921Z,22.17
2018-09-04T09:58:33.317Z,23.43
2018-09-04T10:01:06.058Z,21.57
2018-09-04T10:03:39.786Z,21.60
2018-09-04T10:06:07.377Z,21.60
2018-09-04T10:08:35.162Z,21.40
2018-09-04T10:11:02.798Z,20.17
2018-09-04T10:13:30.692Z,17.33
2018-09-04T10:15:58.049Z,18.07
2018-09-04T10:18:26.023Z,18.10
2018-09-04T10:20:53.430Z,17.37
2018-09-04T10:23:21.084Z,21.23
2018-09-04T10:25:48.451Z,22.57
2018-09-04T10:28:15.808Z,22.53
2018-09-04T10:30:43.462Z,19.37
2018-09-04T10:33:11.040Z,20.70
2018-09-04T10:35:38.640Z,22.00
2018-09-04T10:38:06.816Z,21.00
2018-09-04T10:40:38.663Z,24.47
2018-09-04T10:43:06.225Z,21.80
2018-09-04T10:45:39.372Z,21.20
2018-09-04T10:48:06.977Z,19.30
2018-09-04T10:50:34.524Z,18.50
2018-09-04T10:53:01.868Z,19.50
2018-09-04T10:55:29.771Z,21.70
2018-09-04T10:57:57.121Z,21.20
2018-09-04T11:00:24.996Z,23.47
2018-09-04T11:02:52.630Z,23.07
2018-09-04T11:05:20.043Z,20.00
2018-09-04T11:07:47.395Z,17.90
2018-09-04T11:10:14.776Z,19.17
2018-09-04T11:12:42.095Z,18.53
2018-09-04T11:15:09.467Z,18.97
2018-09-04T11:17:37.103Z,18.83
2018-09-04T11:20:04.703Z,19.50
2018-09-04T11:22:32.100Z,22.07
2018-09-04T11:25:00.023Z,23.83
2018-09-04T11:27:27.352Z,23.27
2018-09-04T11:29:54.932Z,21.67
2018-09-04T11:32:22.295Z,20.30
2018-09-04T11:34:49.657Z,19.40
2018-09-04T11:37:17.496Z,21.80
2018-09-04T11:39:44.862Z,22.47
2018-09-04T11:42:13.659Z,24.00
2018-09-04T11:44:41.692Z,22.97
2018-09-04T11:47:09.073Z,21.03
2018-09-04T11:49:36.693Z,20.73
2018-09-04T11:52:04.470Z,18.73
2018-09-04T11:54:31.805Z,19.30
2018-09-04T11:56:59.366Z,18.93
2018-09-04T11:59:26.777Z,20.17
2018-09-04T12:01:57.466Z,19.87
2018-09-04T12:04:25.063Z,20.57
2018-09-04T12:06:52.369Z,20.43
2018-09-04T12:09:19.785Z,19.17
2018-09-04T12:11:52.731Z,19.20
2018-09-04T12:14:20.594Z,24.37
2018-09-04T12:16:47.917Z,20.77
2018-09-04T12:19:15.556Z,19.37
2018-09-04T12:21:43.165Z,17.83
2018-09-04T12:24:10.512Z,18.93
2018-09-04T12:26:37.820Z,17.83
2018-09-04T12:29:06.099Z,18.00
2018-09-04T12:31:33.510Z,17.60
2018-09-04T12:34:00.891Z,17.80
2018-09-04T12:36:28.241Z,17.97
2018-09-04T12:38:55.634Z,19.17
2018-09-04T12:41:22.955Z,20.00
2018-09-04T12:43:50.495Z,22.70
2018-09-04T12:46:18.734Z,22.13
2018-09-04T12:48:53.137Z,21.70
2018-09-04T12:51:21.085Z,20.70
2018-09-04T12:53:48.455Z,20.20
2018-09-04T12:56:15.821Z,20.97
2018-09-04T12:58:43.469Z,20.90
2018-09-04T13:01:11.084Z,18.93
2018-09-04T13:03:38.440Z,18.10
2018-09-04T13:06:06.606Z,19.27
2018-09-04T13:08:34.514Z,19.60
2018-09-04T13:11:01.851Z,19.20
2018-09-04T13:13:29.234Z,19.13
2018-09-04T13:15:58.980Z,17.47
2018-09-04T13:18:27.612Z,17.67
2018-09-04T13:20:59.248Z,17.40
2018-09-04T13:23:27.053Z,17.33
2018-09-04T13:25:55.213Z,16.27
2018-09-04T13:28:23.142Z,17.60
2018-09-04T13:30:50.758Z,17.33
2018-09-04T13:33:18.426Z,16.83
2018-09-04T13:35:46.014Z,17.53
2018-09-04T13:38:13.355Z,16.33
2018-09-04T13:40:40.755Z,19.80
2018-09-04T13:43:08.616Z,19.93
2018-09-04T13:45:37.033Z,17.37
2018-09-04T13:48:04.391Z,17.30
2018-09-04T13:50:32.057Z,17.00
2018-09-04T13:52:59.407Z,17.93
2018-09-04T13:55:27.378Z,19.87
2018-09-04T13:57:54.711Z,18.00
2018-09-04T14:00:23.101Z,15.90
2018-09-04T14:02:50.936Z,17.83
2018-09-04T14:05:18.637Z,19.43
2018-09-04T14:07:46.304Z,19.53
2018-09-04T14:10:13.946Z,20.90
2018-09-04T14:12:41.332Z,17.10
2018-09-04T14:15:09.263Z,16.63
2018-09-04T14:17:37.259Z,17.00
2018-09-04T14:20:05.054Z,15.53
2018-09-04T14:22:36.861Z,15.73
2018-09-04T14:25:04.707Z,14.67
2018-09-04T14:27:35.971Z,15.73
2018-09-04T14:30:19.632Z,14.33
2018-09-04T14:32:36.304Z,17.33
2018-09-04T14:35:06.833Z,17.77
2018-09-04T14:37:36.533Z,18.73
2018-09-04T14:40:04.689Z,18.23
2018-09-04T14:42:32.811Z,18.73
2018-09-04T14:45:01.377Z,17.63
2018-09-04T14:47:30.869Z,16.77
2018-09-04T14:50:00.599Z,19.17
2018-09-04T14:52:31.106Z,17.73
2018-09-04T14:54:59.287Z,17.20
2018-09-04T14:57:26.803Z,16.37
2018-09-04T14:59:54.563Z,17.80
2018-09-04T15:02:25.639Z,19.47
2018-09-04T15:04:53.268Z,19.40
2018-09-04T15:07:20.624Z,19.40
2018-09-04T15:09:47.953Z,18.50
2018-09-04T15:12:16.350Z,20.20
2018-09-04T15:14:44.821Z,18.60
2018-09-04T15:17:16.110Z,17.90
2018-09-04T15:19:45.067Z,17.90
2018-09-04T15:22:16.105Z,17.20
2018-09-04T15:24:45.959Z,15.33
2018-09-04T15:27:16.158Z,18.07
2018-09-04T15:29:45.652Z,17.87
2018-09-04T15:32:15.082Z,16.40
2018-09-04T15:34:44.486Z,16.23
2018-09-04T15:37:12.243Z,16.80
2018-09-04T15:39:40.259Z,17.17
2018-09-04T15:42:08.861Z,16.23
2018-09-04T15:44:39.030Z,17.00
2018-09-04T15:47:06.400Z,18.17
2018-09-04T15:49:40.298Z,16.60
2018-09-04T15:52:08.798Z,16.50
2018-09-04T15:54:37.130Z,15.60
2018-09-04T15:57:09.530Z,15.70
2018-09-04T15:59:39.362Z,16.77
2018-09-04T16:02:09.805Z,16.40
2018-09-04T16:04:37.259Z,14.90
2018-09-04T16:07:04.611Z,16.83
2018-09-04T16:09:31.998Z,15.57
2018-09-04T16:11:59.385Z,15.33
2018-09-04T16:14:26.659Z,15.50
2018-09-04T16:16:53.972Z,16.00
2018-09-04T16:19:21.564Z,16.53
2018-09-04T16:21:48.853Z,15.30
2018-09-04T16:24:16.178Z,17.37
2018-09-04T16:26:43.502Z,16.53
2018-09-04T16:29:10.887Z,17.27
2018-09-04T16:31:38.182Z,16.97
2018-09-04T16:34:05.570Z,15.53
2018-09-04T16:36:32.987Z,15.00
2018-09-04T16:39:00.451Z,15.13
2018-09-04T16:41:27.851Z,16.37
2018-09-04T16:43:55.305Z,15.43
2018-09-04T16:46:22.598Z,13.93
2018-09-04T16:48:49.985Z,14.20
2018-09-04T16:51:17.337Z,14.30
2018-09-04T16:53:44.626Z,15.00
2018-09-04T16:56:11.899Z,14.67
2018-09-04T16:58:39.209Z,15.40
2018-09-04T17:01:06.491Z,15.33
2018-09-04T17:03:33.855Z,14.57
2018-09-04T17:06:01.366Z,14.90
2018-09-04T17:08:28.645Z,15.00
2018-09-04T17:10:55.998Z,14.23
2018-09-04T17:13:23.338Z,14.70
2018-09-04T17:15:50.646Z,14.30
2018-09-04T17:18:17.961Z,15.17
2018-09-04T17:20:45.285Z,14.60
2018-09-04T17:23:12.577Z,14.23
2018-09-04T17:25:40.001Z,14.30
2018-09-04T17:28:07.346Z,14.13
2018-09-04T17:30:34.694Z,14.43
2018-09-04T17:33:02.222Z,14.50
2018-09-04T17:35:29.717Z,16.87
2018-09-04T17:37:57.043Z,15.20
2018-09-04T17:40:24.382Z,15.73
2018-09-04T17:42:51.721Z,16.60
2018-09-04T17:45:19.190Z,15.83
2018-09-04T17:47:46.527Z,15.70
2018-09-04T17:50:13.832Z,15.60
2018-09-04T17:52:41.165Z,15.10
2018-09-04T17:55:08.535Z,15.73
2018-09-04T17:57:38.791Z,14.53
2018-09-04T18:00:06.311Z,14.17
2018-09-04T18:02:33.786Z,14.37
2018-09-04T18:05:01.219Z,14.37
2018-09-04T18:07:28.629Z,14.90
2018-09-04T18:09:56.033Z,15.23
2018-09-04T18:12:23.502Z,15.20
2018-09-04T18:14:50.818Z,15.67
2018-09-04T18:17:18.497Z,14.80
2018-09-04T18:19:45.837Z,14.33
2018-09-04T18:22:13.242Z,16.17
2018-09-04T18:24:40.534Z,15.70
2018-09-04T18:27:07.938Z,15.87
2018-09-04T18:29:35.297Z,14.97
2018-09-04T18:32:02.953Z,15.37
2018-09-04T18:34:30.842Z,14.77
2018-09-04T18:36:58.582Z,15.00
2018-09-04T18:39:25.946Z,15.53
2018-09-04T18:41:53.219Z,14.93
2018-09-04T18:44:20.767Z,15.17
2018-09-04T18:46:48.206Z,15.20
2018-09-04T18:49:15.556Z,17.40
2018-09-04T18:51:45.166Z,18.33
2018-09-04T18:54:12.509Z,15.97
2018-09-04T18:56:39.976Z,17.10
2018-09-04T18:59:07.351Z,17.20
2018-09-04T19:01:34.707Z,18.13
2018-09-04T19:04:02.163Z,17.73
2018-09-04T19:06:29.544Z,16.73
2018-09-04T19:08:56.877Z,17.60
2018-09-04T19:11:24.173Z,17.20
2018-09-04T19:13:51.482Z,16.03
2018-09-04T19:16:18.821Z,16.80
2018-09-04T19:18:46.132Z,16.30
2018-09-04T19:21:13.415Z,16.23
2018-09-04T19:23:40.707Z,16.53
2018-09-04T19:26:08.011Z,17.13
2018-09-04T19:28:35.564Z,17.10
2018-09-04T19:31:02.937Z,15.77
2018-09-04T19:33:30.507Z,15.90
2018-09-04T19:35:57.832Z,16.50
2018-09-04T19:38:25.099Z,15.23
2018-09-04T19:40:52.533Z,14.20
2018-09-04T19:43:19.943Z,14.63
2018-09-04T19:45:47.569Z,16.53
2018-09-04T19:48:14.904Z,15.20
2018-09-04T19:50:42.248Z,13.67
2018-09-04T19:53:09.694Z,13.10
2018-09-04T19:55:37.662Z,12.20
2018-09-04T19:58:05.462Z,13.60
2018-09-04T20:00:33.377Z,13.57
2018-09-04T20:03:01.288Z,12.10
2018-09-04T20:05:30.272Z,12.30
2018-09-04T20:07:58.207Z,11.43
2018-09-04T20:10:26.020Z,12.57
2018-09-04T20:12:53.501Z,12.93
2018-09-04T20:15:21.309Z,12.10
2018-09-04T20:17:49.246Z,12.87
2018-09-04T20:20:17.513Z,13.50
2018-09-04T20:22:45.348Z,13.70
2018-09-04T20:25:12.868Z,13.87
2018-09-04T20:27:40.119Z,12.43
2018-09-04T20:30:08.006Z,11.33
2018-09-04T20:32:35.841Z,12.00
2018-09-04T20:35:04.154Z,12.33
2018-09-04T20:37:32.168Z,11.57
2018-09-04T20:39:59.880Z,10.53
2018-09-04T20:42:27.803Z,10.63
2018-09-04T20:44:55.615Z,10.93
2018-09-04T20:47:23.619Z,10.00
2018-09-04T20:49:51.353Z,10.07
2018-09-04T20:52:19.263Z,10.10
2018-09-04T20:54:47.316Z,10.03
2018-09-04T20:57:21.121Z,10.23
2018-09-04T20:59:54.418Z,9.13
2018-09-04T21:02:27.607Z,9.20
2018-09-04T21:05:00.367Z,9.40
2018-09-04T21:07:38.998Z,8.93
2018-09-04T21:10:06.865Z,9.80
2018-09-04T21:12:34.348Z,9.53
2018-09-04T21:15:02.189Z,9.30
2018-09-04T21:17:29.803Z,9.37
2018-09-04T21:20:03.247Z,8.50
2018-09-04T21:22:31.163Z,9.67
2018-09-04T21:24:58.682Z,10.27
2018-09-04T21:27:26.237Z,9.53
2018-09-04T21:29:53.787Z,10.07
2018-09-04T21:32:23.554Z,8.73
2018-09-04T21:34:51.287Z,8.07
2018-09-04T21:37:18.938Z,8.93
2018-09-04T21:39:47.159Z,9.30
2018-09-04T21:42:15.037Z,9.40
2018-09-04T21:44:43.221Z,9.37
2018-09-04T21:47:11.071Z,9.40
2018-09-04T21:49:39.060Z,8.63
2018-09-04T21:52:07.030Z,8.43
2018-09-04T21:54:35.088Z,8.07
2018-09-04T21:57:03.251Z,9.97
2018-09-04T21:59:30.565Z,9.80
2018-09-04T22:01:57.924Z,9.53
2018-09-04T22:04:25.196Z,8.83
2018-09-04T22:06:52.476Z,8.03
2018-09-04T22:09:19.826Z,8.67
2018-09-04T22:11:47.090Z,7.97
2018-09-04T22:14:14.450Z,7.83
2018-09-04T22:16:41.706Z,7.83
2018-09-04T22:19:08.971Z,9.37
2018-09-04T22:21:36.311Z,9.13
2018-09-04T22:24:03.799Z,9.13
2018-09-04T22:26:31.127Z,8.70
2018-09-04T22:28:58.545Z,8.00
2018-09-04T22:31:25.831Z,7.80
2018-09-04T22:33:53.102Z,8.40
2018-09-04T22:36:20.674Z,8.80
2018-09-04T22:38:47.947Z,8.57
2018-09-04T22:41:15.207Z,7.87
2018-09-04T22:43:42.561Z,8.07
2018-09-04T22:46:09.860Z,8.07
2018-09-04T22:48:37.177Z,9.53
2018-09-04T22:51:10.046Z,7.33
2018-09-04T22:53:37.328Z,8.10
2018-09-04T22:56:04.822Z,8.20
2018-09-04T22:58:32.153Z,8.47
2018-09-04T23:00:59.418Z,8.23
2018-09-04T23:03:26.732Z,8.20
2018-09-04T23:05:55.634Z,9.67
2018-09-04T23:08:23.382Z,8.53
2018-09-04T23:10:50.658Z,9.00
2018-09-04T23:13:17.908Z,7.90
2018-09-04T23:15:45.214Z,9.40
2018-09-04T23:18:13.414Z,8.90
2018-09-04T23:20:40.769Z,8.30
2018-09-04T23:23:08.071Z,8.97
2018-09-04T23:25:35.369Z,8.77
2018-09-04T23:28:02.714Z,8.20
2018-09-04T23:30:30.041Z,8.60
2018-09-04T23:32:57.358Z,8.87
2018-09-04T23:35:24.774Z,8.37
2018-09-04T23:37:52.067Z,8.17
2018-09-04T23:40:19.375Z,8.50
2018-09-04T23:42:46.668Z,8.70
2018-09-04T23:45:14.493Z,9.23
2018-09-04T23:47:42.238Z,9.07
2018-09-04T23:50:09.495Z,8.20
2018-09-04T23:52:37.126Z,8.17
2018-09-04T23:55:04.469Z,7.87
2018-09-04T23:57:31.784Z,8.40
2018-09-04T23:59:59.111Z,8.90
